Easton, ME (04740)

5:08 PM EST on February 07, 2016 (GMT -0500)
APRSWXNET | | Change Station
CLOSE
Current Station
Personal Weather Station
Location: Presque Isle, ME
Elevation: 649 ft
Nearby Weather Stations

Elev 649 ft 46.69 °N, 67.99 °W | Updated 27 minutes ago

Clear
Clear
16 °F
Feels Like 16 °F
N
1
Wind Variable Wind from NW
Gusts 6.0 mph

Today
High -- | Low -- °F
--% Chance of Precip.
Yesterday
High -- | Low -- °F
Precip. -- in
Pressure 30.39 in
Visibility 10.0 miles
Clouds Clear
Windchill 16 °F
Dew Point -6 °F
Humidity 36%
Rainfall in
Snow Depth Not available.
6:48 AM 4:43 PM
Waning Crescent, 1% visible
METAR KPQI 072156Z AUTO 30006KT 10SM CLR M08/M21 A3025 RMK AO2 SLP291 T10831211 FZRANO
Pressure 30.39 in
Visibility 10.0 miles
Clouds Clear
Windchill 16 °F
Dew Point -6 °F
Humidity 36%
Rainfall in
Snow Depth Not available.
6:48 AM 4:43 PM
Waning Crescent, 1% visible
METAR KPQI 072156Z AUTO 30006KT 10SM CLR M08/M21 A3025 RMK AO2 SLP291 T10831211 FZRANO

10-Day Weather Forecast

Almanac

Astronomy

Feb. 07, 2016 Rise Set
Actual Time
Civil Twilight
Nautical Twilight
Astronomical Twilight
Moon
Length of Visible Light
Length of Day
Tomorrow will be .
, % of the Moon is Illuminated

Today's Extremes

State Highs State Lows

Community

WunderPhotos

Upload Photos

1,891,304 photos uploaded!

WunderBlog® & News

Nearby

Air Quality

  Air Quality AQ Index Pollutant
Not available.

Snow Depth

Station Depth Elevation

Earthquake Activity

City Distance Mag. Time & Date
Minimum magnitude displayed is 2.5.

Coastal Water Temperatures

Place Temperature

Stations

Nearby Weather Stations

Station Location Temp. Windchill Dew Point Humidity Wind Precip. Elev Updated Type
                   

Watches & Warnings

There are currently no watches in effect.